Time;durP1;ratioP1;P1;durP2;ratioP2;P2;SDS_P1;SDS_P2;PMS_P1;PMS_P2;Temp;Humidity;BMP_temperature;BMP_pressure;BME280_temperature;BME280_humidity;BME280_pressure;Samples;Min_cycle;Max_cycle;Signal;HPM_P1;HPM_P2
2021/12/08 05:05:48;;;;;;;35.70;22.83;;;;;;;-0.70;100.00;94121.19;4960751;28;20056;-83
2021/12/08 05:08:17;;;;;;;30.90;21.17;;;;;;;-0.70;100.00;94122.00;4960183;29;20035;-82
2021/12/08 05:10:43;;;;;;;32.80;21.85;;;;;;;-0.56;100.00;94139.47;4944928;29;20016;-82
2021/12/08 05:13:11;;;;;;;32.67;21.63;;;;;;;-0.09;100.00;94206.00;4959595;28;20034;-83
2021/12/08 05:15:49;;;;;;;29.90;21.65;;;;;;;-0.84;100.00;94094.38;4958879;29;20130;-82
2021/12/08 05:18:22;;;;;;;33.67;22.60;;;;;;;-0.12;100.00;94209.59;4926276;29;20040;-79
2021/12/08 05:21:09;;;;;;;32.55;22.33;;;;;;;-0.15;100.00;94206.50;4919098;29;20025;-81
2021/12/08 05:23:39;;;;;;;31.58;21.38;;;;;;;-0.05;100.00;94215.00;4931997;29;20043;-82
2021/12/08 05:26:20;;;;;;;29.48;21.08;;;;;;;-0.57;100.00;94142.94;4922150;29;20032;-81
2021/12/08 05:28:48;;;;;;;33.45;22.23;;;;;;;-0.50;100.00;94157.69;4932055;29;20036;-81
2021/12/08 05:31:27;;;;;;;30.67;21.45;;;;;;;-0.11;100.00;94221.41;4905828;29;20482;-79
2021/12/08 05:33:53;;;;;;;32.45;22.33;;;;;;;-0.38;100.00;94172.75;4884547;29;20052;-79
2021/12/08 05:36:19;;;;;;;36.55;22.10;;;;;;;-0.19;100.00;94221.19;4898924;29;20056;-79
2021/12/08 05:38:45;;;;;;;29.73;21.35;;;;;;;-0.24;100.00;94213.16;4900599;29;20033;-79
2021/12/08 05:41:17;;;;;;;32.50;21.60;;;;;;;-0.25;100.00;94195.44;4903903;29;20547;-80
2021/12/08 05:43:44;;;;;;;34.45;22.27;;;;;;;-0.19;100.00;94217.84;4921317;29;20029;-82
2021/12/08 05:46:10;;;;;;;36.00;21.63;;;;;;;-0.25;100.00;94203.09;4939195;29;20032;-83
2021/12/08 05:48:38;;;;;;;34.80;21.35;;;;;;;-0.15;100.00;94234.47;4935763;29;20187;-80
2021/12/08 05:51:11;;;;;;;31.00;22.30;;;;;;;-0.20;100.00;94236.59;4918621;29;20024;-81
2021/12/08 05:53:39;;;;;;;30.85;21.23;;;;;;;-0.31;100.00;94217.13;4938870;29;20048;-80
2021/12/08 05:56:05;;;;;;;30.98;21.15;;;;;;;-0.21;100.00;94242.59;4933350;29;20039;-81
2021/12/08 05:58:31;;;;;;;35.75;22.50;;;;;;;-0.09;100.00;94259.41;4937862;29;20060;-80
2021/12/08 06:01:04;;;;;;;35.08;22.30;;;;;;;-0.27;100.00;94251.53;4933541;29;20021;-80
2021/12/08 06:03:30;;;;;;;35.78;22.67;;;;;;;-0.07;100.00;94262.66;4913809;29;20084;-82
2021/12/08 06:05:56;;;;;;;33.78;22.05;;;;;;;-0.14;100.00;94271.72;4935762;29;20005;-86
2021/12/08 06:08:22;;;;;;;33.33;21.17;;;;;;;-0.18;100.00;94260.97;4936452;29;20027;-80
2021/12/08 06:10:48;;;;;;;34.00;22.60;;;;;;;-0.12;100.00;94263.03;4937214;29;20017;-83
2021/12/08 06:13:16;;;;;;;32.40;22.13;;;;;;;-0.09;100.00;94279.75;4936120;29;20048;-83
2021/12/08 06:15:44;;;;;;;34.88;22.98;;;;;;;-0.05;100.00;94273.50;4936763;29;20021;-79
2021/12/08 06:18:14;;;;;;;36.60;23.10;;;;;;;-0.23;100.00;94272.47;4944720;28;20056;-84
2021/12/08 06:20:39;;;;;;;33.33;21.95;;;;;;;-0.18;100.00;94280.50;4923290;29;20032;-84
2021/12/08 06:23:09;;;;;;;35.38;22.77;;;;;;;-0.08;100.00;94300.00;4924700;29;20047;-80
2021/12/08 06:25:37;;;;;;;34.15;20.85;;;;;;;-0.12;100.00;94272.38;4938448;29;20036;-83
2021/12/08 06:28:03;;;;;;;33.45;22.10;;;;;;;-0.17;100.00;94267.69;4939434;29;20004;-81
2021/12/08 06:30:31;;;;;;;31.02;21.95;;;;;;;-0.01;100.00;94279.97;4938670;29;20024;-85
2021/12/08 06:32:57;;;;;;;34.20;21.92;;;;;;;-0.26;100.00;94252.34;4922374;29;20032;-83
2021/12/08 06:35:30;;;;;;;34.17;22.45;;;;;;;-0.09;100.00;94284.84;4938618;29;20035;-83
2021/12/08 06:37:56;;;;;;;36.75;22.70;;;;;;;-0.02;100.00;94288.53;4937129;29;20509;-84
2021/12/08 06:40:36;;;;;;;40.05;25.00;;;;;;;-0.37;100.00;94265.94;4938598;29;20044;-85
2021/12/08 06:43:05;;;;;;;35.75;23.75;;;;;;;-0.08;100.00;94287.28;4941269;29;20028;-84
2021/12/08 06:45:34;;;;;;;39.38;22.73;;;;;;;-0.05;100.00;94293.88;4935958;29;20032;-79
2021/12/08 06:48:02;;;;;;;35.88;22.85;;;;;;;-0.09;100.00;94290.75;4938429;29;20107;-84
2021/12/08 06:50:33;;;;;;;38.63;23.13;;;;;;;-0.09;100.00;94285.66;4938825;29;20032;-77
2021/12/08 06:52:58;;;;;;;33.80;21.10;;;;;;;-0.23;100.00;94280.91;4934200;29;20047;-82
2021/12/08 06:55:32;;;;;;;34.65;21.63;;;;;;;-0.23;100.00;94270.72;4924058;29;20060;-80
2021/12/08 06:58:02;;;;;;;36.47;22.30;;;;;;;-0.04;100.00;94300.56;4935380;29;20039;-79
2021/12/08 07:01:11;;;;;;;35.38;21.75;;;;;;;-0.20;100.00;94279.84;4937670;29;20017;-85
2021/12/08 07:06:09;;;;;;;31.88;20.77;;;;;;;-0.85;100.00;94173.22;4958886;29;20058;-84
2021/12/08 07:08:46;;;;;;;35.35;22.27;;;;;;;-0.04;100.00;94310.75;4944050;29;20040;-81
2021/12/08 07:11:14;;;;;;;33.47;21.40;;;;;;;-0.77;100.00;94064.97;4961444;29;20112;-84
2021/12/08 07:13:40;;;;;;;37.40;20.98;;;;;;;-0.73;100.00;94065.53;4961955;28;20030;-81
2021/12/08 07:16:14;;;;;;;33.10;21.80;;;;;;;-0.45;100.00;94125.09;4961596;28;20011;-82
2021/12/08 07:18:54;;;;;;;32.60;19.92;;;;;;;0.02;100.00;94198.28;4959747;28;20627;-83
2021/12/08 07:21:23;;;;;;;34.83;19.92;;;;;;;-0.57;100.00;94094.66;4955502;29;20079;-83
2021/12/08 07:23:54;;;;;;;28.77;18.73;;;;;;;-0.47;100.00;94096.44;4973734;28;20019;-83
2021/12/08 07:26:25;;;;;;;33.17;20.88;;;;;;;0.12;100.00;94185.63;4979423;28;20027;-85
2021/12/08 07:28:56;;;;;;;30.35;19.42;;;;;;;-0.31;100.00;94117.94;4965441;29;20022;-84
2021/12/08 07:31:35;;;;;;;32.72;20.90;;;;;;;-0.50;100.00;94089.06;4950503;28;20035;-80
2021/12/08 07:34:06;;;;;;;27.92;19.40;;;;;;;-0.47;100.00;94091.34;4958309;28;20051;-85
2021/12/08 07:36:39;;;;;;;32.70;20.92;;;;;;;-0.47;100.00;94079.44;4946998;29;20044;-84
2021/12/08 07:39:12;;;;;;;30.02;19.40;;;;;;;-0.39;100.00;94094.06;4944134;29;20121;-77
2021/12/08 07:41:41;;;;;;;26.00;18.10;;;;;;;-0.16;100.00;94128.59;5377016;23;20059;-84
2021/12/08 07:44:10;;;;;;;24.05;17.70;;;;;;;-0.03;100.00;94129.16;4967796;28;20031;-84
2021/12/08 07:47:05;;;;;;;27.65;18.45;;;;;;;-0.49;100.00;94065.25;4969119;29;20027;-78
2021/12/08 07:49:51;;;;;;;29.98;18.27;;;;;;;-0.31;100.00;94112.84;4965184;29;20023;-85
2021/12/08 07:52:25;;;;;;;38.75;18.88;;;;;;;-0.56;100.00;94087.84;4961421;28;20070;-84
2021/12/08 07:54:51;;;;;;;31.00;18.95;;;;;;;-0.47;100.00;94081.19;4983083;28;20078;-83
2021/12/08 07:57:29;;;;;;;28.27;19.48;;;;;;;-0.55;100.00;94069.91;4967359;28;20022;-86
2021/12/08 08:00:00;;;;;;;27.20;18.85;;;;;;;-0.41;100.00;94085.75;4958234;28;20070;-85
2021/12/08 08:02:28;;;;;;;30.38;19.58;;;;;;;-0.14;100.00;94119.91;4982141;28;20015;-87
2021/12/08 08:04:58;;;;;;;30.58;20.50;;;;;;;0.21;100.00;94200.13;4967727;28;20014;-85
2021/12/08 08:07:24;;;;;;;33.20;21.30;;;;;;;-0.47;100.00;94088.81;4967388;28;20034;-85
2021/12/08 08:10:02;;;;;;;27.23;17.90;;;;;;;-0.34;100.00;94099.56;4972786;28;20014;-86
2021/12/08 08:12:33;;;;;;;26.75;18.20;;;;;;;-0.12;100.00;94140.09;4985079;28;20030;-86
2021/12/08 08:15:15;;;;;;;28.25;19.35;;;;;;;0.42;100.00;94211.84;4967698;28;20022;-86
2021/12/08 08:17:45;;;;;;;28.08;18.23;;;;;;;-0.25;100.00;94101.34;4983722;28;20018;-85
2021/12/08 08:20:25;;;;;;;26.70;18.10;;;;;;;0.11;100.00;94161.09;4964549;28;20031;-87
2021/12/08 08:22:54;;;;;;;24.80;18.92;;;;;;;0.51;100.00;94216.19;4993271;28;20082;-80
2021/12/08 08:25:27;;;;;;;30.27;19.27;;;;;;;-0.30;100.00;94083.13;4998072;28;20026;-85
2021/12/08 08:27:57;;;;;;;22.42;16.35;;;;;;;-0.04;100.00;94097.84;4992619;28;20019;-84
2021/12/08 08:30:27;;;;;;;21.75;15.68;;;;;;;-0.10;100.00;94097.56;5009825;28;20030;-85
2021/12/08 08:32:58;;;;;;;;;;;;;;;0.80;100.00;94212.94;5003678;28;20049;-85
2021/12/08 08:35:52;;;;;;;23.70;16.30;;;;;;;0.72;100.00;94216.13;4970486;28;19902;-85
2021/12/08 08:38:29;;;;;;;24.98;17.15;;;;;;;0.05;100.00;94114.06;5003369;28;20038;-84
2021/12/08 08:41:05;;;;;;;25.67;16.92;;;;;;;0.13;100.00;94106.59;4986774;28;20015;-85
2021/12/08 08:46:33;;;;;;;23.35;16.38;;;;;;;0.67;100.00;94212.34;4959592;28;20084;-84
2021/12/08 08:49:46;;;;;;;25.13;16.35;;;;;;;0.03;100.00;94108.31;4957626;28;20079;-84
2021/12/08 08:52:28;;;;;;;22.27;15.80;;;;;;;0.57;100.00;94168.22;4950436;29;20058;-86
2021/12/08 08:55:02;;;;;;;23.73;16.95;;;;;;;0.97;100.00;94214.81;4960772;28;20027;-85
2021/12/08 08:57:37;;;;;;;23.48;16.63;;;;;;;0.35;100.00;94128.50;4959353;28;20038;-84
2021/12/08 09:00:25;;;;;;;23.58;17.25;;;;;;;0.26;100.00;94111.44;4952600;29;20052;-85
2021/12/08 09:03:21;;;;;;;22.48;16.55;;;;;;;0.18;100.00;94096.84;4928111;29;20008;-84
2021/12/08 09:06:11;;;;;;;24.20;16.92;;;;;;;0.88;100.00;94200.31;4957992;28;20079;-81
2021/12/08 09:08:38;;;;;;;20.92;15.48;;;;;;;0.18;100.00;94088.41;4959644;28;20028;-85
2021/12/08 09:11:31;;;;;;;23.00;15.60;;;;;;;0.61;100.00;94139.81;4933952;29;20064;-85
2021/12/08 09:14:23;;;;;;;24.83;16.63;;;;;;;0.25;100.00;94097.13;4944400;29;20020;-86
2021/12/08 09:17:28;;;;;;;24.50;16.70;;;;;;;0.82;100.00;94140.53;4943762;29;20096;-84
2021/12/08 09:23:37;;;;;;;23.40;16.17;;;;;;;1.07;100.00;94182.50;4960620;28;20119;-85
2021/12/08 09:26:20;;;;;;;24.25;17.13;;;;;;;0.74;100.00;94119.97;4960130;28;20011;-84
2021/12/08 09:29:13;;;;;;;24.27;16.25;;;;;;;0.24;100.00;94053.03;4957006;29;20069;-80
2021/12/08 09:32:09;;;;;;;22.33;16.40;;;;;;;0.37;100.00;94047.69;4941493;28;20051;-83
2021/12/08 09:34:59;;;;;;;23.77;16.80;;;;;;;1.09;100.00;94170.47;4937996;29;20196;-85
2021/12/08 09:37:36;;;;;;;22.60;16.30;;;;;;;0.91;100.00;94123.63;4922151;29;20028;-85
2021/12/08 09:40:59;;;;;;;24.25;16.45;;;;;;;1.08;100.00;94166.28;4938207;29;20050;-81
2021/12/08 09:50:17;;;;;;;23.15;16.55;;;;;;;0.59;100.00;94093.28;5249602;23;20110;-84
2021/12/08 10:02:32;;;;;;;23.00;17.27;;;;;;;1.57;100.00;94162.78;4978384;28;20059;-85
2021/12/08 10:05:41;;;;;;;24.95;16.45;;;;;;;1.54;100.00;94160.53;4955567;29;20056;-84
2021/12/08 10:08:18;;;;;;;23.65;16.15;;;;;;;1.29;100.00;94113.41;4940602;29;20028;-86
2021/12/08 10:11:28;;;;;;;23.67;16.77;;;;;;;1.66;100.00;94167.06;4922811;29;20052;-85
2021/12/08 10:14:16;;;;;;;20.98;14.75;;;;;;;0.80;100.00;94050.69;4948359;29;20054;-85
2021/12/08 10:23:37;;;;;;;19.42;14.75;;;;;;;0.93;100.00;94040.22;4935706;29;20064;-86
2021/12/08 10:26:30;;;;;;;23.65;16.50;;;;;;;1.44;100.00;94116.38;4904585;29;20060;-79
2021/12/08 10:28:59;;;;;;;22.85;16.55;;;;;;;1.54;100.00;94125.59;4919402;29;20072;-84
2021/12/08 10:31:32;;;;;;;23.85;15.82;;;;;;;1.70;100.00;94154.84;4918075;29;20040;-79
2021/12/08 10:34:53;;;;;;;20.38;16.75;;;;;;;1.86;100.00;94147.44;4952132;29;20035;-87
2021/12/08 11:00:12;;;;;;;21.83;14.82;;;;;;;2.24;100.00;94133.72;4903576;29;20047;-84
2021/12/08 11:06:48;;;;;;;15.35;13.48;;;;;;;2.39;100.00;94128.00;4803583;30;20058;-83
2021/12/08 11:15:52;;;;;;;20.88;15.45;;;;;;;1.86;100.00;94040.25;5352652;23;20058;-86
2021/12/08 11:18:53;;;;;;;18.38;14.98;;;;;;;2.01;100.00;94046.47;4937152;29;20059;-85
2021/12/08 11:21:36;;;;;;;18.57;14.77;;;;;;;2.28;100.00;94046.44;4957805;29;20060;-85
2021/12/08 11:24:49;;;;;;;16.75;13.43;;;;;;;2.17;100.00;94023.69;4956260;29;20276;-86
2021/12/08 11:27:10;;;;;;;17.08;13.07;;;;;;;1.92;100.00;94017.50;4957237;29;20032;-85
2021/12/08 11:29:53;;;;;;;14.63;13.05;;;;;;;2.09;100.00;94083.09;4898836;29;20039;-86
2021/12/08 11:36:18;;;;;;;12.93;11.55;;;;;;;2.54;100.00;94136.78;5119523;23;20054;-87
2021/12/08 11:39:25;;;;;;;13.48;11.77;;;;;;;2.46;100.00;94131.59;4953152;29;20099;-83
2021/12/08 11:41:55;;;;;;;12.75;10.68;;;;;;;2.07;99.47;94091.84;4953908;29;20044;-85
2021/12/08 11:44:43;;;;;;;12.02;10.73;;;;;;;1.54;99.60;94015.91;4919537;29;20031;-86
2021/12/08 11:47:15;;;;;;;12.77;10.65;;;;;;;2.06;100.00;94103.00;4938984;29;20040;-84
2021/12/08 11:49:51;;;;;;;13.13;10.80;;;;;;;2.10;100.00;94105.16;4926644;29;20564;-85
2021/12/08 11:52:39;;;;;;;13.13;10.52;;;;;;;1.70;100.00;94061.25;4938637;29;20040;-83
2021/12/08 11:55:14;;;;;;;11.80;10.65;;;;;;;1.78;100.00;94038.38;4940868;29;20035;-86
2021/12/08 11:58:03;;;;;;;11.88;10.68;;;;;;;1.53;100.00;94036.47;4945330;29;20078;-83
2021/12/08 12:00:39;;;;;;;9.20;8.17;;;;;;;1.79;100.00;94100.44;4958795;29;20012;-87
2021/12/08 12:03:21;;;;;;;15.35;13.32;;;;;;;1.80;100.00;94092.63;4930293;29;20273;-88
2021/12/08 12:06:12;;;;;;;;;;;;;;;2.31;100.00;94155.19;4921520;29;20054;-81
2021/12/08 12:08:47;;;;;;;14.80;12.27;;;;;;;1.41;100.00;94052.88;4954420;29;19926;-86
2021/12/08 12:11:13;;;;;;;12.80;11.18;;;;;;;1.71;100.00;94079.91;4900720;29;20073;-85
2021/12/08 12:13:47;;;;;;;13.43;11.63;;;;;;;1.79;100.00;94101.25;4925974;29;20042;-87
2021/12/08 12:16:17;;;;;;;13.80;12.10;;;;;;;1.53;100.00;94059.41;4950647;29;20028;-86
2021/12/08 12:19:26;;;;;;;14.02;11.88;;;;;;;1.59;100.00;94084.38;4948668;29;20015;-87
2021/12/08 12:23:01;;;;;;;13.18;11.77;;;;;;;2.11;100.00;94162.94;4926735;29;20024;-87
2021/12/08 12:26:16;;;;;;;13.45;12.10;;;;;;;2.15;100.00;94170.31;4822381;29;20066;-86
2021/12/08 12:29:36;;;;;;;13.77;12.32;;;;;;;1.51;100.00;94069.75;4753749;30;20040;-83
2021/12/08 12:32:19;;;;;;;13.88;12.45;;;;;;;2.10;100.00;94174.09;4860705;29;20030;-85
2021/12/08 12:35:02;;;;;;;14.90;12.13;;;;;;;1.36;100.00;94063.47;4831925;29;20059;-85
2021/12/08 12:38:04;;;;;;;16.98;13.30;;;;;;;1.60;100.00;94075.78;4934544;29;20122;-85
2021/12/08 12:41:06;;;;;;;18.80;13.77;;;;;;;2.06;100.00;94124.25;4955479;29;20106;-86
2021/12/08 12:43:44;;;;;;;15.70;12.88;;;;;;;1.31;100.00;94085.25;4923183;29;20050;-85
2021/12/08 12:46:20;;;;;;;13.80;12.40;;;;;;;1.16;100.00;94066.19;4926362;29;20103;-85
2021/12/08 12:48:56;;;;;;;17.30;13.35;;;;;;;1.77;100.00;94133.72;4915081;29;20035;-82
2021/12/08 12:51:47;;;;;;;18.17;12.98;;;;;;;1.27;100.00;94105.09;4927924;29;20042;-84
2021/12/08 12:54:33;;;;;;;13.25;11.10;;;;;;;1.08;100.00;94084.72;4918557;29;20111;-85
2021/12/08 12:57:43;;;;;;;16.17;13.43;;;;;;;0.96;100.00;94078.16;4932922;29;20044;-84
2021/12/08 13:00:33;;;;;;;16.08;13.73;;;;;;;1.77;100.00;94191.63;4939254;29;20040;-85
2021/12/08 13:03:34;;;;;;;19.13;15.05;;;;;;;1.70;100.00;94196.47;4918106;29;20060;-86
2021/12/08 13:07:02;;;;;;;20.38;13.88;;;;;;;1.40;100.00;94123.47;4938523;29;20076;-86
2021/12/08 13:10:14;;;;;;;18.65;14.88;;;;;;;1.16;100.00;94082.28;4943562;29;20028;-85
2021/12/08 13:12:55;;;;;;;21.65;15.50;;;;;;;1.57;100.00;94135.50;4931855;29;20091;-87
2021/12/08 13:15:34;;;;;;;19.40;15.90;;;;;;;1.58;100.00;94200.09;4953036;29;20039;-87
2021/12/08 13:21:05;;;;;;;19.17;15.02;;;;;;;0.72;100.00;94091.28;4937691;29;20039;-81
2021/12/08 13:23:33;;;;;;;21.55;16.08;;;;;;;1.47;100.00;94205.34;4925593;29;20034;-82
2021/12/08 13:28:34;;;;;;;19.20;15.50;;;;;;;1.20;100.00;94162.66;4933999;29;20036;-83
2021/12/08 13:34:17;;;;;;;20.20;15.60;;;;;;;0.58;100.00;94094.22;4923415;29;20046;-84
2021/12/08 13:36:48;;;;;;;16.75;14.32;;;;;;;0.87;100.00;94135.81;4928389;29;20131;-84
2021/12/08 13:39:22;;;;;;;20.60;15.43;;;;;;;0.91;100.00;94182.22;4939547;29;20027;-83
2021/12/08 13:42:18;;;;;;;20.80;16.13;;;;;;;1.22;100.00;94214.31;4972439;29;20034;-83
2021/12/08 13:44:58;;;;;;;20.08;15.85;;;;;;;1.03;100.00;94174.31;4953237;29;20127;-83
2021/12/08 13:47:39;;;;;;;18.92;15.02;;;;;;;0.86;100.00;94172.44;4932471;29;20066;-79
2021/12/08 13:50:11;;;;;;;20.60;15.93;;;;;;;0.53;100.00;94101.47;4961495;29;20015;-83
2021/12/08 13:52:58;;;;;;;20.92;17.65;;;;;;;1.39;100.00;94217.97;4948881;29;20082;-81
2021/12/08 13:55:26;;;;;;;23.00;17.75;;;;;;;1.26;100.00;94223.31;4960611;29;20035;-83
2021/12/08 13:58:14;;;;;;;19.20;16.73;;;;;;;1.17;100.00;94226.66;4945361;29;20086;-82
2021/12/08 14:00:45;;;;;;;18.50;16.23;;;;;;;1.13;100.00;94224.50;4970372;29;20086;-82
2021/12/08 14:03:21;;;;;;;21.73;16.42;;;;;;;1.05;100.00;94207.34;4955390;29;20035;-80
2021/12/08 14:05:57;;;;;;;24.05;17.67;;;;;;;1.17;100.00;94230.97;4955074;29;20110;-80
2021/12/08 14:08:25;;;;;;;20.83;16.25;;;;;;;1.03;100.00;94227.84;4968509;29;20046;-81
2021/12/08 14:11:03;;;;;;;19.30;14.88;;;;;;;0.95;100.00;94227.72;4969762;29;20099;-82
2021/12/08 14:13:34;;;;;;;20.00;16.23;;;;;;;0.92;100.00;94232.25;4938225;29;20035;-81
2021/12/08 14:16:13;;;;;;;21.48;16.23;;;;;;;0.91;100.00;94205.97;4940207;29;20491;-83
2021/12/08 14:18:43;;;;;;;20.40;16.33;;;;;;;0.99;100.00;94228.25;4938596;29;20028;-82
2021/12/08 14:21:17;;;;;;;21.37;16.83;;;;;;;0.80;100.00;94239.22;4938485;29;20027;-83
2021/12/08 14:23:59;;;;;;;19.70;16.50;;;;;;;0.94;100.00;94236.28;4933874;29;20047;-81
2021/12/08 14:26:34;;;;;;;23.08;16.38;;;;;;;0.81;100.00;94240.00;4943736;29;20031;-84
2021/12/08 14:29:13;;;;;;;22.70;17.42;;;;;;;0.54;100.00;94215.13;4931348;29;20095;-84
2021/12/08 14:31:51;;;;;;;22.02;16.20;;;;;;;0.71;100.00;94236.63;4921267;29;20023;-84
2021/12/08 14:34:19;;;;;;;19.95;16.45;;;;;;;0.67;100.00;94242.94;4938271;29;20059;-83
2021/12/08 14:36:45;;;;;;;23.52;18.13;;;;;;;0.68;100.00;94245.31;4927215;29;20059;-83
2021/12/08 14:39:23;;;;;;;22.27;17.75;;;;;;;0.68;100.00;94252.97;4927649;29;20036;-79
2021/12/08 14:41:54;;;;;;;25.13;19.13;;;;;;;0.31;100.00;94222.16;4911055;29;20063;-78
2021/12/08 14:44:30;;;;;;;27.77;19.90;;;;;;;0.56;100.00;94246.38;4935833;29;20015;-80
2021/12/08 14:47:00;;;;;;;26.52;21.10;;;;;;;0.45;100.00;94242.16;4933091;29;20066;-80
2021/12/08 14:49:30;;;;;;;24.70;18.55;;;;;;;0.49;100.00;94235.06;4950124;29;20067;-81
2021/12/08 14:52:06;;;;;;;23.52;18.30;;;;;;;0.55;100.00;94246.50;4939636;29;20051;-78
2021/12/08 14:54:39;;;;;;;24.98;19.20;;;;;;;0.56;100.00;94255.75;4917978;29;20055;-81
2021/12/08 14:57:04;;;;;;;22.20;17.30;;;;;;;0.50;100.00;94251.97;4923638;29;20028;-81
2021/12/08 14:59:32;;;;;;;22.63;17.15;;;;;;;0.49;100.00;94255.44;4931588;29;20024;-79
2021/12/08 15:01:58;;;;;;;24.73;19.25;;;;;;;0.40;100.00;94256.22;4906550;29;20032;-81
2021/12/08 15:04:24;;;;;;;31.60;20.58;;;;;;;0.42;100.00;94262.78;4909228;29;20119;-81
2021/12/08 15:07:02;;;;;;;30.08;21.10;;;;;;;0.43;100.00;94266.13;4941012;29;20067;-81
2021/12/08 15:09:28;;;;;;;30.10;23.00;;;;;;;0.22;100.00;94253.47;4950340;29;20057;-81
2021/12/08 15:11:56;;;;;;;31.85;23.00;;;;;;;0.10;100.00;94243.47;4937741;29;20019;-82
2021/12/08 15:14:21;;;;;;;34.22;25.10;;;;;;;0.17;100.00;94273.38;4922855;29;20016;-83
2021/12/08 15:16:49;;;;;;;30.88;20.88;;;;;;;0.23;100.00;94275.41;4920316;29;20123;-83
2021/12/08 15:19:18;;;;;;;32.40;23.20;;;;;;;0.12;100.00;94280.59;4939593;29;20008;-82
2021/12/08 15:21:53;;;;;;;32.08;23.40;;;;;;;0.25;100.00;94277.84;4933631;29;20031;-84
2021/12/08 15:24:21;;;;;;;63.90;39.17;;;;;;;-0.16;100.00;94232.88;4917982;29;20036;-82
2021/12/08 15:26:53;;;;;;;55.55;34.97;;;;;;;-0.66;100.00;94161.47;4918739;29;20032;-80
2021/12/08 15:29:29;;;;;;;35.00;24.45;;;;;;;0.07;100.00;94281.88;4923967;29;20047;-84
2021/12/08 15:31:59;;;;;;;39.75;25.45;;;;;;;-0.73;100.00;94177.34;4948356;29;20122;-84
2021/12/08 15:34:33;;;;;;;;;;;;;;;-0.02;100.00;94291.06;4933241;29;20043;-81
2021/12/08 15:37:07;;;;;;;37.05;26.17;;;;;;;-0.07;100.00;94294.00;4956334;29;19922;-85
2021/12/08 15:39:39;;;;;;;29.48;23.15;;;;;;;-0.75;100.00;94210.50;4964784;28;20015;-85
2021/12/08 15:42:09;;;;;;;31.08;22.90;;;;;;;-0.19;100.00;94300.06;4968077;28;20044;-85
2021/12/08 15:44:37;;;;;;;25.45;19.45;;;;;;;-1.08;100.00;94162.34;4963454;28;20031;-85
2021/12/08 15:47:06;;;;;;;27.02;20.10;;;;;;;-1.15;100.00;94163.75;4948306;28;20019;-85
2021/12/08 15:49:37;;;;;;;28.88;20.70;;;;;;;-1.12;100.00;94179.56;5385117;23;20047;-83
2021/12/08 15:54:40;;;;;;;33.03;21.88;;;;;;;-1.21;100.00;94190.44;4653341;26;20051;-84
2021/12/08 15:57:16;;;;;;;32.72;22.58;;;;;;;-1.28;100.00;94191.03;4957903;28;20086;-84
2021/12/08 15:59:54;;;;;;;56.70;38.00;;;;;;;-1.03;100.00;94245.81;4979818;23;20107;-84
2021/12/08 16:02:41;;;;;;;50.05;33.25;;;;;;;-0.84;100.00;94292.56;4980488;28;20037;-82
2021/12/08 16:05:15;;;;;;;60.75;33.80;;;;;;;-1.56;100.00;94199.97;4993246;28;20039;-80
2021/12/08 16:08:29;;;;;;;31.67;21.85;;;;;;;-0.79;100.00;94325.22;4971915;28;20032;-83
2021/12/08 16:10:55;;;;;;;30.00;21.88;;;;;;;-0.89;100.00;94330.19;4996529;28;20046;-81
2021/12/08 16:13:22;;;;;;;27.98;21.38;;;;;;;-1.76;100.00;94204.00;4981469;28;20011;-85
2021/12/08 16:15:49;;;;;;;31.33;20.20;;;;;;;-1.02;100.00;94329.50;4980246;28;20023;-81
2021/12/08 16:18:21;;;;;;;28.67;20.65;;;;;;;-1.15;100.00;94323.75;4975849;28;20027;-84
2021/12/08 16:20:47;;;;;;;27.75;20.30;;;;;;;-2.24;100.00;94195.00;4964378;28;20046;-84
2021/12/08 16:23:16;;;;;;;30.00;20.95;;;;;;;-1.78;100.00;94259.16;4982884;28;20018;-84
2021/12/08 16:25:45;;;;;;;231.10;113.35;;;;;;;-2.04;100.00;94216.34;4996198;28;20050;-84
2021/12/08 16:28:12;;;;;;;542.25;280.52;;;;;;;-1.44;100.00;94305.63;4999720;28;20041;-84
2021/12/08 16:30:41;;;;;;;314.60;138.00;;;;;;;-1.75;100.00;94279.22;5002753;28;20021;-83
2021/12/08 16:33:08;;;;;;;355.00;161.10;;;;;;;-1.99;100.00;94240.44;4954015;28;20027;-83
2021/12/08 16:35:34;;;;;;;252.13;113.05;;;;;;;-2.37;100.00;94204.41;5000025;28;20050;-83
2021/12/08 16:38:01;;;;;;;132.10;65.80;;;;;;;-2.19;100.00;94241.91;4964483;28;20121;-81
2021/12/08 16:43:08;;;;;;;;;;;;;;;-1.52;100.00;94348.56;4974598;28;20039;-83
2021/12/08 16:45:44;;;;;;;30.55;22.67;;;;;;;-2.31;100.00;94221.75;4962486;29;19922;-82
2021/12/08 16:48:15;;;;;;;34.40;23.05;;;;;;;-2.28;100.00;94251.94;4967730;28;20015;-85
2021/12/08 16:50:42;;;;;;;34.15;22.88;;;;;;;-2.38;100.00;94215.50;4952153;28;20027;-86
2021/12/08 16:53:10;;;;;;;36.40;24.73;;;;;;;-2.33;100.00;94234.50;4983121;28;20048;-83
2021/12/08 16:55:38;;;;;;;35.92;24.60;;;;;;;-1.38;100.00;94337.38;4982767;28;20011;-82
2021/12/08 16:58:07;;;;;;;36.47;24.25;;;;;;;-2.38;100.00;94213.78;4966781;28;20050;-83
2021/12/08 17:00:46;;;;;;;33.20;23.60;;;;;;;-1.48;100.00;94351.69;4966461;28;20074;-83
2021/12/08 17:03:15;;;;;;;33.85;23.13;;;;;;;-1.89;100.00;94264.19;4966200;28;20046;-82
2021/12/08 17:05:45;;;;;;;33.47;23.17;;;;;;;-1.84;100.00;94274.81;4963391;28;20082;-84
2021/12/08 17:08:26;;;;;;;32.63;23.10;;;;;;;-1.78;100.00;94302.28;4975973;28;20046;-83
2021/12/08 17:10:53;;;;;;;48.22;30.33;;;;;;;-2.06;100.00;94258.75;4968598;28;20045;-80
2021/12/08 17:13:20;;;;;;;43.45;30.20;;;;;;;-1.63;100.00;94318.06;4945622;28;20030;-81
2021/12/08 17:15:45;;;;;;;34.58;23.98;;;;;;;-1.37;100.00;94370.25;4961772;28;20539;-80
2021/12/08 17:18:11;;;;;;;41.70;26.73;;;;;;;-1.94;100.00;94299.25;4943793;28;20058;-80
2021/12/08 17:20:40;;;;;;;33.85;22.67;;;;;;;-1.34;100.00;94380.19;4961047;28;20028;-81
2021/12/08 17:23:07;;;;;;;28.23;20.98;;;;;;;-1.28;100.00;94368.75;4945237;28;20103;-81
2021/12/08 17:25:33;;;;;;;28.67;19.30;;;;;;;-1.79;100.00;94282.06;4961169;29;20054;-81
2021/12/08 17:27:58;;;;;;;32.78;22.77;;;;;;;-1.72;100.00;94314.50;4961810;28;20035;-81
2021/12/08 17:30:24;;;;;;;42.42;27.40;;;;;;;-1.83;100.00;94301.78;4949506;28;20027;-80
2021/12/08 17:32:51;;;;;;;32.03;23.20;;;;;;;-1.71;100.00;94335.63;4961987;29;20023;-81
2021/12/08 17:35:17;;;;;;;25.83;19.30;;;;;;;-2.25;100.00;94256.78;4955871;28;20046;-81
2021/12/08 17:37:44;;;;;;;25.48;19.02;;;;;;;-2.10;100.00;94298.75;4955224;28;20031;-81
2021/12/08 17:40:16;;;;;;;27.75;19.08;;;;;;;-1.46;100.00;94385.38;4972902;28;20054;-83
2021/12/08 17:42:49;;;;;;;29.23;19.95;;;;;;;-2.62;100.00;94242.59;4964663;28;20022;-82
2021/12/08 17:45:22;;;;;;;34.55;24.45;;;;;;;-2.81;100.00;94261.63;4980718;28;20003;-83
2021/12/08 17:47:53;;;;;;;45.83;29.90;;;;;;;-2.17;100.00;94388.84;4977900;28;20107;-83
2021/12/08 17:50:27;;;;;;;51.58;33.78;;;;;;;-2.72;100.00;94336.97;4998293;28;20019;-82
2021/12/08 17:52:59;;;;;;;48.40;30.80;;;;;;;-2.45;100.00;94389.16;4947349;29;20026;-83
2021/12/08 17:55:26;;;;;;;44.08;28.50;;;;;;;-2.50;100.00;94406.41;4946889;28;20027;-84
2021/12/08 18:03:37;;;;;;;43.67;28.58;;;;;;;-3.59;100.00;94264.59;5514379;23;20046;-83
2021/12/08 18:06:17;;;;;;;53.63;33.15;;;;;;;-2.78;100.00;94410.84;4981209;28;20053;-81
2021/12/08 18:08:49;;;;;;;50.80;32.05;;;;;;;-3.84;100.00;94263.72;4951505;28;20042;-83
2021/12/08 18:11:17;;;;;;;51.10;33.85;;;;;;;-2.85;100.00;94412.19;4969848;28;20027;-83
2021/12/08 18:14:19;;;;;;;56.83;33.42;;;;;;;-2.82;100.00;94417.03;4981696;28;20042;-83
2021/12/08 18:16:51;;;;;;;44.25;28.92;;;;;;;-3.42;100.00;94328.34;4978524;28;20047;-84
2021/12/08 18:19:24;;;;;;;71.75;45.28;;;;;;;-3.51;100.00;94326.44;4968897;28;20039;-84
2021/12/08 22:48:21;;;;;;;19.73;13.35;;;;;;;-5.89;100.00;94429.63;6079773;23;20014;-78
2021/12/08 22:51:21;;;;;;;21.92;14.73;;;;;;;-5.85;100.00;94421.91;4922329;29;20055;-85
2021/12/08 22:53:47;;;;;;;15.48;10.90;;;;;;;-6.43;100.00;94347.09;4940202;29;20050;-83
